Time;durP1;ratioP1;P1;durP2;ratioP2;P2;SDS_P1;SDS_P2;PMS_P1;PMS_P2;Temp;Humidity;BMP_temperature;BMP_pressure;BME280_temperature;BME280_humidity;BME280_pressure;Samples;Min_cycle;Max_cycle;Signal;HPM_P1;HPM_P2
2023/06/16 00:01:22;;;;;;;7.73;6.93;;;;;;;;;;6271172;28;20192;-65
2023/06/16 00:04:25;;;;;;;6.97;6.43;;;;;;;;;;6310194;28;20185;-65
2023/06/16 00:07:31;;;;;;;7.10;6.50;;;;;;;;;;6261085;28;20220;-65
2023/06/16 00:10:32;;;;;;;7.87;7.07;;;;;;;;;;6291705;28;20191;-65
2023/06/16 00:13:33;;;;;;;8.43;6.87;;;;;;;;;;6279069;28;20208;-65
2023/06/16 00:16:36;;;;;;;8.07;7.27;;;;;;;;;;6295499;28;20204;-65
2023/06/16 00:19:39;;;;;;;7.13;6.53;;;;;;;;;;6281246;28;20190;-65
2023/06/16 00:22:41;;;;;;;8.83;7.10;;;;;;;;;;6276868;28;20190;-65
2023/06/16 00:25:42;;;;;;;10.03;7.23;;;;;;;;;;6279021;28;20201;-65
2023/06/16 00:28:43;;;;;;;7.03;6.33;;;;;;;;;;6297487;28;20256;-65
2023/06/16 00:31:45;;;;;;;6.97;6.30;;;;;;;;;;6284779;28;20222;-65
2023/06/16 00:34:46;;;;;;;7.87;7.07;;;;;;;;;;6273522;28;20228;-65
2023/06/16 00:37:47;;;;;;;10.50;6.93;;;;;;;;;;6284689;28;20217;-65
2023/06/16 00:40:48;;;;;;;7.27;6.53;;;;;;;;;;6286863;28;20190;-65
2023/06/16 00:43:49;;;;;;;10.87;7.40;;;;;;;;;;6289223;28;20196;-65
2023/06/16 00:46:50;;;;;;;7.90;7.17;;;;;;;;;;6282600;28;20271;-65
2023/06/16 00:49:51;;;;;;;9.43;7.00;;;;;;;;;;6277415;28;20194;-65
2023/06/16 00:52:53;;;;;;;8.23;7.43;;;;;;;;;;6271875;28;20197;-65
2023/06/16 00:55:54;;;;;;;8.00;7.20;;;;;;;;;;6279795;28;20209;-65
2023/06/16 00:58:55;;;;;;;8.10;7.30;;;;;;;;;;6285967;28;20300;-65
2023/06/16 01:01:56;;;;;;;8.77;7.13;;;;;;;;;;6284346;28;20185;-65
2023/06/16 01:04:57;;;;;;;7.20;6.53;;;;;;;;;;6272250;28;20224;-65
2023/06/16 01:08:14;;;;;;;8.07;7.37;;;;;;;;;;6277387;28;20203;-65
2023/06/16 01:11:15;;;;;;;7.60;7.00;;;;;;;;;;6286657;28;20201;-65
2023/06/16 01:14:22;;;;;;;8.90;6.83;;;;;;;;;;6283634;28;20217;-65
2023/06/16 01:17:23;;;;;;;9.30;7.80;;;;;;;;;;6282864;28;20241;-65
2023/06/16 01:20:43;;;;;;;8.90;8.10;;;;;;;;;;6276718;28;20263;-65
2023/06/16 01:24:02;;;;;;;8.57;7.67;;;;;;;;;;6272542;28;20200;-65
2023/06/16 01:27:04;;;;;;;8.37;7.40;;;;;;;;;;6278440;28;20208;-65
2023/06/16 01:30:06;;;;;;;10.20;7.87;;;;;;;;;;6295500;28;20332;-65
2023/06/16 01:33:07;;;;;;;8.90;7.20;;;;;;;;;;6296539;28;20189;-65
2023/06/16 01:36:09;;;;;;;7.70;6.90;;;;;;;;;;6283479;28;20196;-65
2023/06/16 01:39:11;;;;;;;8.50;6.93;;;;;;;;;;6291386;28;20186;-65
2023/06/16 01:42:14;;;;;;;10.60;7.73;;;;;;;;;;6267110;28;20305;-65
2023/06/16 01:45:16;;;;;;;9.97;7.83;;;;;;;;;;6286203;28;20234;-65
2023/06/16 01:48:17;;;;;;;8.23;7.53;;;;;;;;;;6278980;28;20276;-65
2023/06/16 01:51:18;;;;;;;10.03;7.57;;;;;;;;;;6278485;28;20204;-65
2023/06/16 01:54:19;;;;;;;8.37;7.50;;;;;;;;;;6298175;28;20185;-65
2023/06/16 01:57:21;;;;;;;8.27;7.47;;;;;;;;;;6261083;28;20263;-65
2023/06/16 02:00:37;;;;;;;8.83;7.50;;;;;;;;;;6266491;28;20368;-65
2023/06/16 02:03:41;;;;;;;11.10;7.97;;;;;;;;;;6295293;28;20186;-65
2023/06/16 02:06:44;;;;;;;11.20;7.70;;;;;;;;;;6289610;28;20247;-65
2023/06/16 02:09:46;;;;;;;8.70;7.60;;;;;;;;;;6287573;28;20190;-65
2023/06/16 02:12:48;;;;;;;11.50;7.93;;;;;;;;;;6275887;28;20197;-65
2023/06/16 02:15:50;;;;;;;9.60;7.47;;;;;;;;;;6280982;28;20193;-65
2023/06/16 02:18:53;;;;;;;8.23;7.40;;;;;;;;;;6278981;28;20212;-65
2023/06/16 02:21:57;;;;;;;7.93;7.13;;;;;;;;;;6282188;28;20192;-65
2023/06/16 02:25:00;;;;;;;9.27;8.33;;;;;;;;;;6289483;28;20182;-65
2023/06/16 02:28:01;;;;;;;9.30;8.30;;;;;;;;;;6281637;28;20190;-65
2023/06/16 02:31:02;;;;;;;8.80;7.90;;;;;;;;;;6273387;28;20244;-65
2023/06/16 02:34:03;;;;;;;8.77;7.97;;;;;;;;;;6276065;28;20200;-65
2023/06/16 02:37:04;;;;;;;9.30;8.00;;;;;;;;;;6276787;28;20208;-65
2023/06/16 02:40:06;;;;;;;10.70;8.07;;;;;;;;;;6279297;28;20211;-65
2023/06/16 02:43:07;;;;;;;8.53;7.70;;;;;;;;;;6262508;28;20263;-65
2023/06/16 02:46:08;;;;;;;8.37;7.57;;;;;;;;;;6274882;28;20241;-65
2023/06/16 02:49:09;;;;;;;10.93;8.07;;;;;;;;;;6288172;28;20208;-65
2023/06/16 02:52:11;;;;;;;8.83;7.73;;;;;;;;;;6272394;28;20253;-65
2023/06/16 02:55:13;;;;;;;9.47;8.10;;;;;;;;;;6288399;28;20218;-65
2023/06/16 02:58:14;;;;;;;8.43;7.50;;;;;;;;;;6273981;28;20304;-65
2023/06/16 03:01:15;;;;;;;8.83;7.93;;;;;;;;;;6273626;28;20198;-65
2023/06/16 03:04:17;;;;;;;8.50;7.80;;;;;;;;;;6307401;28;20199;-64
2023/06/16 03:07:19;;;;;;;10.33;8.13;;;;;;;;;;6270409;28;20270;-64
2023/06/16 03:10:20;;;;;;;12.57;8.63;;;;;;;;;;6273961;28;20240;-64
2023/06/16 03:13:21;;;;;;;9.43;8.43;;;;;;;;;;6272745;28;20288;-64
2023/06/16 03:16:23;;;;;;;9.63;7.97;;;;;;;;;;6274526;28;20231;-65
2023/06/16 03:19:24;;;;;;;10.23;8.70;;;;;;;;;;6277074;28;20194;-65
2023/06/16 03:22:25;;;;;;;8.80;7.90;;;;;;;;;;6274426;28;20189;-65
2023/06/16 03:25:26;;;;;;;8.90;8.00;;;;;;;;;;6278144;28;20218;-65
2023/06/16 03:28:28;;;;;;;11.00;8.97;;;;;;;;;;6265664;28;20201;-64
2023/06/16 03:31:30;;;;;;;9.67;8.20;;;;;;;;;;6273088;28;20194;-64
2023/06/16 03:34:31;;;;;;;10.77;8.77;;;;;;;;;;6277257;28;20300;-64
2023/06/16 03:37:34;;;;;;;10.20;8.60;;;;;;;;;;6277964;28;20232;-64
2023/06/16 03:40:35;;;;;;;8.53;7.67;;;;;;;;;;6282579;28;20201;-64
2023/06/16 03:43:36;;;;;;;10.30;8.03;;;;;;;;;;6276795;28;20194;-64
2023/06/16 03:46:37;;;;;;;9.23;7.90;;;;;;;;;;6291470;28;20232;-64
2023/06/16 03:49:38;;;;;;;9.10;8.13;;;;;;;;;;6271948;28;20200;-64
2023/06/16 03:52:39;;;;;;;11.13;8.20;;;;;;;;;;6272210;28;20199;-64
2023/06/16 03:55:40;;;;;;;11.80;7.93;;;;;;;;;;6297379;28;20189;-65
2023/06/16 03:58:41;;;;;;;10.03;7.93;;;;;;;;;;6295934;28;20261;-65
2023/06/16 04:01:42;;;;;;;9.07;8.07;;;;;;;;;;6290459;28;20189;-64
2023/06/16 04:04:45;;;;;;;9.33;8.33;;;;;;;;;;6267355;28;20200;-65
2023/06/16 04:07:46;;;;;;;8.23;7.40;;;;;;;;;;6264575;28;20260;-64
2023/06/16 04:10:47;;;;;;;8.63;7.73;;;;;;;;;;6286501;28;20194;-65
2023/06/16 04:13:48;;;;;;;8.93;8.00;;;;;;;;;;6280290;28;20186;-64
2023/06/16 04:16:50;;;;;;;8.90;8.10;;;;;;;;;;6283301;28;20240;-64
2023/06/16 04:19:51;;;;;;;8.67;7.77;;;;;;;;;;6296351;28;20185;-64
2023/06/16 04:22:52;;;;;;;10.33;8.00;;;;;;;;;;6278486;28;20185;-63
2023/06/16 04:25:53;;;;;;;9.60;8.07;;;;;;;;;;6279060;28;20269;-64
2023/06/16 04:28:55;;;;;;;8.70;7.77;;;;;;;;;;6281044;28;20268;-66
2023/06/16 04:31:59;;;;;;;8.47;7.40;;;;;;;;;;6282592;28;20215;-65
2023/06/16 04:35:03;;;;;;;8.20;7.50;;;;;;;;;;6283157;28;20185;-65
2023/06/16 04:38:04;;;;;;;9.40;8.00;;;;;;;;;;6276466;28;20214;-64
2023/06/16 04:41:05;;;;;;;9.47;8.03;;;;;;;;;;6285460;28;20261;-64
2023/06/16 04:44:07;;;;;;;8.67;6.83;;;;;;;;;;6277832;28;20286;-64
2023/06/16 04:47:09;;;;;;;8.97;8.07;;;;;;;;;;6276446;28;20194;-64
2023/06/16 04:50:10;;;;;;;10.03;8.20;;;;;;;;;;6307278;28;20244;-64
2023/06/16 04:53:11;;;;;;;8.57;7.77;;;;;;;;;;6279601;28;20194;-66
2023/06/16 04:56:12;;;;;;;8.87;7.67;;;;;;;;;;6278205;28;20281;-65
2023/06/16 04:59:13;;;;;;;10.60;7.90;;;;;;;;;;6279775;28;20197;-64
2023/06/16 05:02:14;;;;;;;9.93;7.77;;;;;;;;;;6276269;28;20213;-64
2023/06/16 05:05:15;;;;;;;8.93;8.10;;;;;;;;;;6258840;28;20209;-64
2023/06/16 05:08:16;;;;;;;8.00;7.30;;;;;;;;;;6272856;28;20231;-64
2023/06/16 05:11:18;;;;;;;11.00;8.37;;;;;;;;;;6272283;28;20188;-64
2023/06/16 05:14:19;;;;;;;10.97;7.67;;;;;;;;;;6266041;28;20238;-64
2023/06/16 05:17:20;;;;;;;8.40;7.60;;;;;;;;;;6277119;28;20304;-64
2023/06/16 05:20:21;;;;;;;9.17;7.77;;;;;;;;;;6292234;28;20192;-64
2023/06/16 05:23:22;;;;;;;9.77;8.77;;;;;;;;;;6275451;28;20189;-64
2023/06/16 05:26:23;;;;;;;10.20;8.73;;;;;;;;;;6283932;28;20180;-63
2023/06/16 05:29:24;;;;;;;8.17;7.33;;;;;;;;;;6280190;28;20193;-63
2023/06/16 05:32:25;;;;;;;9.13;8.27;;;;;;;;;;6273386;28;20201;-63
2023/06/16 05:35:27;;;;;;;8.97;8.07;;;;;;;;;;6277738;28;20276;-63
2023/06/16 05:38:28;;;;;;;10.73;8.07;;;;;;;;;;6288902;28;20213;-64
2023/06/16 05:41:29;;;;;;;11.00;7.67;;;;;;;;;;6272264;28;20200;-64
2023/06/16 05:44:30;;;;;;;10.73;8.57;;;;;;;;;;6275635;28;20290;-64
2023/06/16 05:47:31;;;;;;;9.10;8.07;;;;;;;;;;6273415;28;20189;-64
2023/06/16 05:50:32;;;;;;;10.10;7.63;;;;;;;;;;6284528;28;20205;-64
2023/06/16 05:53:33;;;;;;;10.13;8.13;;;;;;;;;;6283758;28;20212;-64
2023/06/16 05:56:34;;;;;;;11.30;8.30;;;;;;;;;;6278193;28;20298;-64
2023/06/16 05:59:36;;;;;;;10.17;8.00;;;;;;;;;;6280196;28;20189;-64
2023/06/16 06:02:37;;;;;;;8.50;7.70;;;;;;;;;;6278967;28;20193;-64
2023/06/16 06:05:38;;;;;;;9.07;8.13;;;;;;;;;;6276168;28;20256;-64
2023/06/16 06:08:39;;;;;;;8.43;7.67;;;;;;;;;;6270751;28;20196;-64
2023/06/16 06:11:40;;;;;;;9.70;8.70;;;;;;;;;;6266412;28;20237;-64
2023/06/16 06:14:41;;;;;;;9.60;8.60;;;;;;;;;;6290946;28;20196;-64
2023/06/16 06:17:42;;;;;;;9.53;8.00;;;;;;;;;;6267013;28;20209;-64
2023/06/16 06:20:45;;;;;;;8.90;7.87;;;;;;;;;;6276388;28;20196;-64
2023/06/16 06:23:46;;;;;;;11.20;7.83;;;;;;;;;;6277116;28;20196;-65
2023/06/16 06:26:47;;;;;;;10.43;7.30;;;;;;;;;;6274882;28;20201;-65
2023/06/16 06:29:48;;;;;;;9.07;6.87;;;;;;;;;;6279135;28;20196;-65
2023/06/16 06:32:49;;;;;;;8.60;7.50;;;;;;;;;;6284202;28;20280;-65
2023/06/16 06:35:50;;;;;;;9.70;7.53;;;;;;;;;;6264334;28;20188;-65
2023/06/16 06:38:51;;;;;;;9.13;7.33;;;;;;;;;;6294196;28;20254;-65
2023/06/16 06:41:52;;;;;;;8.23;7.37;;;;;;;;;;6273709;28;20192;-65
2023/06/16 06:44:53;;;;;;;9.30;7.07;;;;;;;;;;6274177;28;20238;-65
2023/06/16 06:47:54;;;;;;;9.63;7.57;;;;;;;;;;6284533;28;20282;-65
2023/06/16 06:50:55;;;;;;;8.77;7.83;;;;;;;;;;6285865;28;20190;-65
2023/06/16 06:53:56;;;;;;;8.20;7.27;;;;;;;;;;6270620;28;20188;-65
2023/06/16 06:56:57;;;;;;;8.30;7.50;;;;;;;;;;6266970;28;20217;-65
2023/06/16 06:59:58;;;;;;;7.60;6.57;;;;;;;;;;6277920;28;20188;-65
2023/06/16 07:02:59;;;;;;;6.80;6.20;;;;;;;;;;6274581;28;20211;-65
2023/06/16 07:06:01;;;;;;;11.27;7.67;;;;;;;;;;6280154;28;20242;-65
2023/06/16 07:09:02;;;;;;;9.87;7.73;;;;;;;;;;6276470;28;20288;-65
2023/06/16 07:12:03;;;;;;;8.20;7.27;;;;;;;;;;6284561;28;20201;-65
2023/06/16 07:15:04;;;;;;;9.90;7.40;;;;;;;;;;6273702;28;20205;-65
2023/06/16 07:18:06;;;;;;;8.40;7.10;;;;;;;;;;6278157;28;20217;-65
2023/06/16 07:21:07;;;;;;;7.83;7.00;;;;;;;;;;6279894;28;20242;-64
2023/06/16 07:24:08;;;;;;;9.13;7.97;;;;;;;;;;6274729;28;20194;-64
2023/06/16 07:27:09;;;;;;;8.03;7.33;;;;;;;;;;6278061;28;20213;-64
2023/06/16 07:30:10;;;;;;;7.70;7.00;;;;;;;;;;6276442;28;20185;-64
2023/06/16 07:33:11;;;;;;;8.53;7.53;;;;;;;;;;6274551;28;20204;-64
2023/06/16 07:36:12;;;;;;;7.77;6.77;;;;;;;;;;6282102;28;20196;-65
2023/06/16 07:39:13;;;;;;;7.97;7.17;;;;;;;;;;6289834;28;20193;-64
2023/06/16 07:42:16;;;;;;;8.87;7.70;;;;;;;;;;6291997;28;20250;-64
2023/06/16 07:45:17;;;;;;;7.43;6.73;;;;;;;;;;6281339;28;20295;-65
2023/06/16 07:48:18;;;;;;;8.27;7.13;;;;;;;;;;6290758;28;20276;-65
2023/06/16 07:51:21;;;;;;;7.47;6.77;;;;;;;;;;6285609;28;20197;-65
2023/06/16 07:54:22;;;;;;;8.20;7.40;;;;;;;;;;6275645;28;20198;-65
2023/06/16 07:57:23;;;;;;;8.03;6.00;;;;;;;;;;6274849;28;20224;-65
2023/06/16 08:00:24;;;;;;;6.57;5.97;;;;;;;;;;6273644;28;20197;-65
2023/06/16 08:03:25;;;;;;;6.60;5.90;;;;;;;;;;6289842;28;20195;-65
2023/06/16 08:06:27;;;;;;;6.83;6.23;;;;;;;;;;6269639;28;20186;-65
2023/06/16 08:09:28;;;;;;;7.27;5.57;;;;;;;;;;6267836;28;20280;-65
2023/06/16 08:12:29;;;;;;;6.47;5.87;;;;;;;;;;6274010;28;20197;-65
2023/06/16 08:15:30;;;;;;;6.63;5.63;;;;;;;;;;6275571;28;20282;-65
2023/06/16 08:18:31;;;;;;;6.07;5.57;;;;;;;;;;6288928;28;20228;-65
2023/06/16 08:21:32;;;;;;;7.57;5.33;;;;;;;;;;6279988;28;20201;-65
2023/06/16 08:24:33;;;;;;;13.43;6.57;;;;;;;;;;6282270;28;20181;-65
2023/06/16 08:27:34;;;;;;;5.80;4.90;;;;;;;;;;6281136;28;20667;-65
2023/06/16 08:30:36;;;;;;;5.30;4.90;;;;;;;;;;6279562;28;20282;-65
2023/06/16 08:33:37;;;;;;;5.90;5.30;;;;;;;;;;6295768;28;20196;-65
2023/06/16 08:36:38;;;;;;;5.30;4.90;;;;;;;;;;6272285;28;20206;-65
2023/06/16 08:39:42;;;;;;;5.07;4.67;;;;;;;;;;6259253;28;20189;-65
2023/06/16 08:42:43;;;;;;;4.90;4.50;;;;;;;;;;6280366;28;20182;-65
2023/06/16 08:45:45;;;;;;;5.27;4.77;;;;;;;;;;6284387;28;20245;-65
2023/06/16 08:48:46;;;;;;;4.40;4.00;;;;;;;;;;6278587;28;20207;-64
2023/06/16 08:51:49;;;;;;;4.67;4.27;;;;;;;;;;6273431;28;20274;-64
2023/06/16 08:54:57;;;;;;;4.70;4.30;;;;;;;;;;6276786;28;20197;-64
2023/06/16 08:57:59;;;;;;;5.20;4.63;;;;;;;;;;6292855;28;20210;-64
2023/06/16 09:01:04;;;;;;;4.83;3.97;;;;;;;;;;6293797;28;20190;-64
2023/06/16 09:04:09;;;;;;;5.00;4.60;;;;;;;;;;6294469;28;20186;-64
2023/06/16 09:07:11;;;;;;;4.83;4.37;;;;;;;;;;6272118;28;20201;-64
2023/06/16 09:10:12;;;;;;;5.17;4.67;;;;;;;;;;6280319;28;20190;-64
2023/06/16 09:13:16;;;;;;;5.20;4.70;;;;;;;;;;6285390;28;20268;-64
2023/06/16 09:16:17;;;;;;;4.70;4.20;;;;;;;;;;6271767;28;20209;-64
2023/06/16 09:19:18;;;;;;;4.37;4.03;;;;;;;;;;6292163;28;20197;-64
2023/06/16 09:22:20;;;;;;;4.97;4.47;;;;;;;;;;6282748;28;20194;-64
2023/06/16 09:25:21;;;;;;;5.50;5.00;;;;;;;;;;6301001;28;20194;-64
2023/06/16 09:28:33;;;;;;;5.47;4.77;;;;;;;;;;6282999;28;20196;-64
2023/06/16 09:31:37;;;;;;;5.13;4.63;;;;;;;;;;6278335;28;20186;-64
2023/06/16 09:34:39;;;;;;;6.33;4.67;;;;;;;;;;6274857;28;20669;-64
2023/06/16 09:37:41;;;;;;;5.40;4.90;;;;;;;;;;6271943;28;20226;-64
2023/06/16 09:40:42;;;;;;;5.97;5.30;;;;;;;;;;6284114;28;20182;-64
2023/06/16 09:43:43;;;;;;;4.87;4.37;;;;;;;;;;6265648;28;20192;-64
2023/06/16 09:46:47;;;;;;;5.00;4.60;;;;;;;;;;6278208;28;20259;-64
2023/06/16 09:49:52;;;;;;;5.23;4.83;;;;;;;;;;6279079;28;20205;-64
2023/06/16 09:52:56;;;;;;;5.60;5.07;;;;;;;;;;6282744;28;20200;-64
2023/06/16 09:55:57;;;;;;;5.60;4.53;;;;;;;;;;6281794;28;20269;-64
2023/06/16 09:58:58;;;;;;;5.87;4.80;;;;;;;;;;6305146;28;20221;-64
2023/06/16 10:02:00;;;;;;;6.47;5.40;;;;;;;;;;6276820;28;20197;-64
2023/06/16 10:05:02;;;;;;;7.17;5.10;;;;;;;;;;6279128;28;20184;-64
2023/06/16 10:08:05;;;;;;;5.77;4.93;;;;;;;;;;6271551;28;20193;-64
2023/06/16 10:11:08;;;;;;;5.77;5.27;;;;;;;;;;6282508;28;20198;-64
2023/06/16 10:14:10;;;;;;;5.10;4.60;;;;;;;;;;6292240;28;20208;-64
2023/06/16 10:17:11;;;;;;;5.80;5.20;;;;;;;;;;6266176;28;20206;-64
2023/06/16 10:20:13;;;;;;;5.80;4.97;;;;;;;;;;6276034;28;20193;-64
2023/06/16 10:23:14;;;;;;;7.27;5.87;;;;;;;;;;6278180;28;20185;-64
2023/06/16 10:26:15;;;;;;;5.77;5.27;;;;;;;;;;6283523;28;20190;-64
2023/06/16 10:29:17;;;;;;;8.23;5.03;;;;;;;;;;6282827;28;20200;-64
2023/06/16 10:32:18;;;;;;;6.20;4.97;;;;;;;;;;6291471;28;20198;-65
2023/06/16 10:35:20;;;;;;;5.70;4.90;;;;;;;;;;6276384;28;20215;-64
2023/06/16 10:38:34;;;;;;;5.83;5.33;;;;;;;;;;6284655;28;20221;-65
2023/06/16 10:41:48;;;;;;;5.30;4.90;;;;;;;;;;6286673;28;20182;-64
2023/06/16 10:44:49;;;;;;;6.33;4.97;;;;;;;;;;6297327;28;20225;-65
2023/06/16 10:48:01;;;;;;;8.83;5.93;;;;;;;;;;6288065;28;20239;-65
2023/06/16 10:51:02;;;;;;;5.67;5.17;;;;;;;;;;6294679;28;20200;-65
2023/06/16 10:54:03;;;;;;;6.57;5.50;;;;;;;;;;6282100;28;20193;-64
2023/06/16 10:57:06;;;;;;;6.23;4.77;;;;;;;;;;6286407;28;20209;-65
2023/06/16 11:00:11;;;;;;;6.13;5.50;;;;;;;;;;6287350;28;20184;-64
2023/06/16 11:03:12;;;;;;;5.93;5.37;;;;;;;;;;6283959;28;20194;-65
2023/06/16 11:06:13;;;;;;;6.33;5.57;;;;;;;;;;6281332;28;20298;-65
2023/06/16 11:09:14;;;;;;;6.30;5.70;;;;;;;;;;6274321;28;20292;-65
2023/06/16 11:12:16;;;;;;;6.23;5.33;;;;;;;;;;6281138;28;20193;-65
2023/06/16 11:15:19;;;;;;;4.80;4.30;;;;;;;;;;6293512;28;20240;-64
2023/06/16 11:18:24;;;;;;;5.50;5.00;;;;;;;;;;6288255;28;20213;-64
2023/06/16 11:21:30;;;;;;;6.07;5.50;;;;;;;;;;6275533;28;20196;-64
2023/06/16 11:24:31;;;;;;;5.47;4.97;;;;;;;;;;6275220;28;20182;-64
2023/06/16 11:27:33;;;;;;;6.10;5.50;;;;;;;;;;6287469;28;20204;-64
2023/06/16 11:30:36;;;;;;;8.27;5.83;;;;;;;;;;6291166;28;20182;-64
2023/06/16 11:33:38;;;;;;;5.30;4.80;;;;;;;;;;6277828;28;20185;-64
2023/06/16 11:36:39;;;;;;;7.00;5.10;;;;;;;;;;6282446;28;20284;-64
2023/06/16 11:39:43;;;;;;;5.67;5.00;;;;;;;;;;6274455;28;20189;-66
2023/06/16 11:42:52;;;;;;;5.87;5.00;;;;;;;;;;6295784;28;20266;-66
2023/06/16 11:45:53;;;;;;;7.23;5.00;;;;;;;;;;6292530;28;20237;-66
2023/06/16 11:48:54;;;;;;;6.13;5.10;;;;;;;;;;6275243;28;20198;-66
2023/06/16 11:51:56;;;;;;;5.07;4.63;;;;;;;;;;6293179;28;20220;-66
2023/06/16 11:55:01;;;;;;;5.63;4.83;;;;;;;;;;6276083;28;20189;-65
2023/06/16 11:58:02;;;;;;;5.60;5.10;;;;;;;;;;6278506;28;20251;-65
2023/06/16 12:01:04;;;;;;;5.33;4.93;;;;;;;;;;6273780;28;20201;-65
2023/06/16 12:04:05;;;;;;;5.43;4.93;;;;;;;;;;6277135;28;20186;-65
2023/06/16 12:07:07;;;;;;;6.00;5.00;;;;;;;;;;6280607;28;20193;-65
2023/06/16 12:10:08;;;;;;;4.93;4.47;;;;;;;;;;6278821;28;20184;-65
2023/06/16 12:13:10;;;;;;;5.67;5.17;;;;;;;;;;6284159;28;20208;-65
2023/06/16 12:16:12;;;;;;;5.53;5.03;;;;;;;;;;6287682;28;20192;-65
2023/06/16 12:19:16;;;;;;;5.90;5.10;;;;;;;;;;6275017;28;20210;-66
2023/06/16 12:22:18;;;;;;;6.17;5.20;;;;;;;;;;6282880;28;20186;-65
2023/06/16 12:25:19;;;;;;;5.43;4.93;;;;;;;;;;6275600;28;20192;-66
2023/06/16 12:28:21;;;;;;;5.90;4.80;;;;;;;;;;6275847;28;20197;-65
2023/06/16 12:31:26;;;;;;;5.53;4.93;;;;;;;;;;6273854;28;20194;-64
2023/06/16 12:34:35;;;;;;;5.87;4.93;;;;;;;;;;6281431;28;20264;-64
2023/06/16 12:37:39;;;;;;;7.07;5.37;;;;;;;;;;6281890;28;20245;-64
2023/06/16 12:40:41;;;;;;;5.50;4.80;;;;;;;;;;6284354;28;20186;-64
2023/06/16 12:43:50;;;;;;;5.27;4.70;;;;;;;;;;6280278;28;20196;-64
2023/06/16 12:46:52;;;;;;;7.03;5.30;;;;;;;;;;6287079;28;20241;-64
2023/06/16 12:49:54;;;;;;;5.50;5.00;;;;;;;;;;6284550;28;20192;-64
2023/06/16 12:52:55;;;;;;;6.17;5.57;;;;;;;;;;6291902;28;20284;-64
2023/06/16 12:55:56;;;;;;;5.70;5.17;;;;;;;;;;6272338;28;20208;-64
2023/06/16 12:58:57;;;;;;;5.43;4.93;;;;;;;;;;6269632;28;20216;-64
2023/06/16 13:01:58;;;;;;;7.43;5.53;;;;;;;;;;6290826;28;20181;-64
2023/06/16 13:05:00;;;;;;;7.03;5.40;;;;;;;;;;6280258;28;20184;-64
2023/06/16 13:08:01;;;;;;;7.77;5.90;;;;;;;;;;6281217;28;20209;-62
2023/06/16 13:11:02;;;;;;;6.53;5.30;;;;;;;;;;6293920;28;20220;-63
2023/06/16 13:14:03;;;;;;;6.07;5.17;;;;;;;;;;6288499;28;20181;-62
2023/06/16 13:17:05;;;;;;;7.20;5.73;;;;;;;;;;6284297;28;20220;-62
2023/06/16 13:20:06;;;;;;;6.47;5.73;;;;;;;;;;6281960;28;20196;-63
2023/06/16 13:23:07;;;;;;;7.93;5.70;;;;;;;;;;6281453;28;20232;-63
2023/06/16 13:26:08;;;;;;;7.27;5.70;;;;;;;;;;6280801;28;20185;-62
2023/06/16 13:29:09;;;;;;;6.63;5.97;;;;;;;;;;6291805;28;20201;-63
2023/06/16 13:32:10;;;;;;;7.80;5.90;;;;;;;;;;6288718;28;20192;-63
2023/06/16 13:35:11;;;;;;;6.40;5.70;;;;;;;;;;6285819;28;20194;-63
2023/06/16 13:38:12;;;;;;;6.17;5.53;;;;;;;;;;6280794;28;20205;-63
2023/06/16 13:41:14;;;;;;;6.03;5.43;;;;;;;;;;6271018;28;20197;-63
2023/06/16 13:44:15;;;;;;;6.33;5.40;;;;;;;;;;6287231;28;20213;-63
2023/06/16 13:47:16;;;;;;;8.87;5.73;;;;;;;;;;6296718;28;20193;-63
2023/06/16 13:50:17;;;;;;;5.63;5.10;;;;;;;;;;6291313;28;20186;-63
2023/06/16 13:53:19;;;;;;;6.30;5.73;;;;;;;;;;6277856;28;20201;-63
2023/06/16 13:56:21;;;;;;;5.97;5.43;;;;;;;;;;6282497;28;20198;-63
2023/06/16 13:59:22;;;;;;;6.30;5.57;;;;;;;;;;6281662;28;20223;-63
2023/06/16 14:02:24;;;;;;;6.37;5.77;;;;;;;;;;6283856;28;20253;-63
2023/06/16 14:05:25;;;;;;;6.27;5.27;;;;;;;;;;6272793;28;20277;-63
2023/06/16 14:08:26;;;;;;;5.83;5.33;;;;;;;;;;6282044;28;20229;-63
2023/06/16 14:11:27;;;;;;;7.30;5.23;;;;;;;;;;6293255;28;20197;-63
2023/06/16 14:14:28;;;;;;;7.57;5.27;;;;;;;;;;6281706;28;20192;-63
2023/06/16 14:17:29;;;;;;;8.07;5.47;;;;;;;;;;6281237;28;20217;-63
2023/06/16 14:20:30;;;;;;;6.77;6.07;;;;;;;;;;6281378;28;20193;-62
2023/06/16 14:23:31;;;;;;;9.67;5.47;;;;;;;;;;6276286;28;20327;-62
2023/06/16 14:26:32;;;;;;;5.23;4.73;;;;;;;;;;6270610;28;20208;-62
2023/06/16 14:29:33;;;;;;;6.90;5.50;;;;;;;;;;6279526;28;20201;-63
2023/06/16 14:32:35;;;;;;;6.30;5.13;;;;;;;;;;6262991;28;20191;-63
2023/06/16 14:35:36;;;;;;;5.53;4.70;;;;;;;;;;6279173;28;20193;-63
2023/06/16 14:38:37;;;;;;;5.70;5.20;;;;;;;;;;6271145;28;20242;-62
2023/06/16 14:41:39;;;;;;;5.40;4.90;;;;;;;;;;6268172;28;20193;-63
2023/06/16 14:44:40;;;;;;;8.93;5.30;;;;;;;;;;6293459;28;20261;-62
2023/06/16 14:47:41;;;;;;;6.67;5.83;;;;;;;;;;6295327;28;20192;-63
2023/06/16 14:50:42;;;;;;;6.13;5.53;;;;;;;;;;6288894;28;20286;-63
2023/06/16 14:53:43;;;;;;;6.10;5.03;;;;;;;;;;6271857;28;20197;-63
2023/06/16 14:56:44;;;;;;;6.53;4.90;;;;;;;;;;6267007;28;20638;-62
2023/06/16 14:59:45;;;;;;;6.27;5.40;;;;;;;;;;6276069;28;20239;-63
2023/06/16 15:02:47;;;;;;;7.57;5.23;;;;;;;;;;6286882;28;20223;-63
2023/06/16 15:05:48;;;;;;;7.40;5.80;;;;;;;;;;6280655;28;20248;-63
2023/06/16 15:08:49;;;;;;;5.80;5.07;;;;;;;;;;6279500;28;20193;-63
2023/06/16 15:11:50;;;;;;;6.57;5.13;;;;;;;;;;6291555;28;20327;-63
2023/06/16 15:14:51;;;;;;;6.10;5.50;;;;;;;;;;6276811;28;20208;-63
2023/06/16 15:17:52;;;;;;;6.03;5.43;;;;;;;;;;6295697;28;20213;-63
2023/06/16 15:20:53;;;;;;;5.63;5.13;;;;;;;;;;6279071;28;20197;-63
2023/06/16 15:23:55;;;;;;;6.10;5.60;;;;;;;;;;6290143;28;20201;-63
2023/06/16 15:26:56;;;;;;;5.43;4.70;;;;;;;;;;6288718;28;20189;-63
2023/06/16 15:29:57;;;;;;;7.13;5.20;;;;;;;;;;6283372;28;20278;-63
2023/06/16 15:32:58;;;;;;;5.90;5.30;;;;;;;;;;6277693;28;20197;-62
2023/06/16 15:36:03;;;;;;;6.40;5.10;;;;;;;;;;6283153;28;20207;-63
2023/06/16 15:39:06;;;;;;;7.53;5.10;;;;;;;;;;6294361;28;20201;-64
2023/06/16 15:42:08;;;;;;;6.03;5.40;;;;;;;;;;6279140;28;20189;-64
2023/06/16 15:45:09;;;;;;;6.50;5.90;;;;;;;;;;6295927;28;20224;-64
2023/06/16 15:48:10;;;;;;;8.57;7.10;;;;;;;;;;6285814;28;20343;-64
2023/06/16 15:51:11;;;;;;;6.53;5.83;;;;;;;;;;6275361;28;20281;-64
2023/06/16 15:54:12;;;;;;;8.07;6.73;;;;;;;;;;6279498;28;20189;-64
2023/06/16 15:57:14;;;;;;;6.50;5.90;;;;;;;;;;6274459;28;20228;-64
2023/06/16 16:00:15;;;;;;;5.90;5.20;;;;;;;;;;6287359;28;20219;-64
2023/06/16 16:03:16;;;;;;;4.93;4.53;;;;;;;;;;6283634;28;20181;-64
2023/06/16 16:06:17;;;;;;;5.60;5.10;;;;;;;;;;6275965;28;20196;-63
2023/06/16 16:09:18;;;;;;;6.13;5.60;;;;;;;;;;6276409;28;20217;-63
2023/06/16 16:12:19;;;;;;;5.67;5.17;;;;;;;;;;6277930;28;20202;-64
2023/06/16 16:15:20;;;;;;;7.03;5.40;;;;;;;;;;6260947;28;20197;-64
2023/06/16 16:18:21;;;;;;;5.80;5.30;;;;;;;;;;6292468;28;20231;-64
2023/06/16 16:21:22;;;;;;;5.40;4.90;;;;;;;;;;6287921;28;20193;-64
2023/06/16 16:24:23;;;;;;;8.17;5.60;;;;;;;;;;6279254;28;20205;-64
2023/06/16 16:27:27;;;;;;;6.53;5.40;;;;;;;;;;6269264;28;20201;-64
2023/06/16 16:30:28;;;;;;;6.23;5.13;;;;;;;;;;6282161;28;20190;-64
2023/06/16 16:33:29;;;;;;;6.47;5.57;;;;;;;;;;6263728;28;20204;-64
2023/06/16 16:36:31;;;;;;;5.93;5.33;;;;;;;;;;6272955;28;20196;-64
2023/06/16 16:39:32;;;;;;;6.20;5.50;;;;;;;;;;6263696;28;20360;-64
2023/06/16 16:42:33;;;;;;;6.07;5.30;;;;;;;;;;6274687;28;20193;-64
2023/06/16 16:45:34;;;;;;;5.90;5.30;;;;;;;;;;6285513;28;20241;-64
2023/06/16 16:48:35;;;;;;;6.30;5.27;;;;;;;;;;6274511;28;20197;-64
2023/06/16 16:51:36;;;;;;;6.43;5.73;;;;;;;;;;6271057;28;20206;-64
2023/06/16 16:54:37;;;;;;;6.17;5.33;;;;;;;;;;6274595;28;20298;-64
2023/06/16 16:57:38;;;;;;;6.77;5.30;;;;;;;;;;6282494;28;20266;-64
2023/06/16 17:00:39;;;;;;;5.90;5.30;;;;;;;;;;6272720;28;20196;-64
2023/06/16 17:03:40;;;;;;;5.63;4.87;;;;;;;;;;6278825;28;20270;-64
2023/06/16 17:06:41;;;;;;;5.33;4.27;;;;;;;;;;6286353;28;20193;-64
2023/06/16 17:09:43;;;;;;;7.27;4.97;;;;;;;;;;6274291;28;20215;-64
2023/06/16 17:12:44;;;;;;;7.43;4.60;;;;;;;;;;6281112;28;20195;-64
2023/06/16 17:15:45;;;;;;;8.47;4.60;;;;;;;;;;6280874;28;20192;-64
2023/06/16 17:18:46;;;;;;;5.70;4.80;;;;;;;;;;6277830;28;20221;-64
2023/06/16 17:21:47;;;;;;;5.10;4.07;;;;;;;;;;6277020;28;20201;-64
2023/06/16 17:24:48;;;;;;;4.80;4.40;;;;;;;;;;6267992;28;20242;-64
2023/06/16 17:27:49;;;;;;;4.97;4.47;;;;;;;;;;6258046;28;20193;-64
2023/06/16 17:30:50;;;;;;;5.13;4.63;;;;;;;;;;6272235;28;20185;-63
2023/06/16 17:33:52;;;;;;;5.70;4.87;;;;;;;;;;6279262;28;20198;-63
2023/06/16 17:36:57;;;;;;;6.23;4.87;;;;;;;;;;6255282;28;20194;-63
2023/06/16 17:39:59;;;;;;;5.60;4.50;;;;;;;;;;6280089;28;20194;-62
2023/06/16 17:43:03;;;;;;;5.67;4.63;;;;;;;;;;6278286;28;20202;-62
2023/06/16 17:46:05;;;;;;;4.73;4.30;;;;;;;;;;6283599;28;20305;-63
2023/06/16 17:49:06;;;;;;;5.60;4.83;;;;;;;;;;6277075;28;20254;-61
2023/06/16 17:52:07;;;;;;;6.33;4.93;;;;;;;;;;6277577;28;20250;-61
2023/06/16 17:55:09;;;;;;;5.53;4.93;;;;;;;;;;6272202;28;20239;-62
2023/06/16 17:58:10;;;;;;;6.60;4.50;;;;;;;;;;6274251;28;20263;-62
2023/06/16 18:01:11;;;;;;;5.07;4.57;;;;;;;;;;6266881;28;20282;-63
2023/06/16 18:04:12;;;;;;;4.37;3.93;;;;;;;;;;6288890;28;20239;-63
2023/06/16 18:07:13;;;;;;;6.60;4.73;;;;;;;;;;6283242;28;20189;-62